createdAt,value
2023-02-16T00:00:08.854Z,5.60
2023-02-16T00:12:33.028Z,5.30
2023-02-16T00:15:36.825Z,5.50
2023-02-16T00:18:20.541Z,5.33
2023-02-16T00:27:28.568Z,5.30
2023-02-16T00:30:49.136Z,5.17
2023-02-16T00:37:10.518Z,4.70
2023-02-16T00:40:13.738Z,5.37
2023-02-16T00:43:38.276Z,4.80
2023-02-16T00:47:13.043Z,4.90
2023-02-16T00:54:17.888Z,4.50
2023-02-16T00:56:48.267Z,4.67
2023-02-16T00:59:41.585Z,4.70
2023-02-16T01:05:07.662Z,4.23
2023-02-16T01:11:24.269Z,5.00
2023-02-16T01:14:26.936Z,4.40
2023-02-16T01:16:57.015Z,4.57
2023-02-16T01:19:56.679Z,4.67
2023-02-16T01:25:37.339Z,5.13
2023-02-16T01:28:43.774Z,4.30
2023-02-16T01:32:14.358Z,4.70
2023-02-16T01:34:39.473Z,4.03
2023-02-16T01:37:51.715Z,4.33
2023-02-16T01:42:56.978Z,4.13
2023-02-16T01:45:32.850Z,4.23
2023-02-16T01:48:09.824Z,4.30
2023-02-16T01:50:50.209Z,3.90
2023-02-16T01:53:32.219Z,4.03
2023-02-16T01:56:07.013Z,4.20
2023-02-16T01:58:54.953Z,3.83
2023-02-16T02:01:38.502Z,4.33
2023-02-16T02:04:32.793Z,3.77
2023-02-16T02:07:01.255Z,3.97
2023-02-16T02:09:38.830Z,4.00
2023-02-16T02:12:30.079Z,4.07
2023-02-16T02:14:56.644Z,3.90
2023-02-16T02:17:23.350Z,4.20
2023-02-16T02:20:08.582Z,4.00
2023-02-16T02:23:03.508Z,3.77
2023-02-16T02:25:44.779Z,3.70
2023-02-16T02:28:17.363Z,3.80
2023-02-16T02:31:04.792Z,3.80
2023-02-16T02:33:57.736Z,3.70
2023-02-16T02:36:40.720Z,3.90
2023-02-16T02:39:38.315Z,3.90
2023-02-16T02:42:10.810Z,3.80
2023-02-16T02:44:54.973Z,3.90
2023-02-16T02:47:23.943Z,3.73
2023-02-16T02:50:05.938Z,3.57
2023-02-16T02:52:32.541Z,3.63
2023-02-16T02:55:17.590Z,3.77
2023-02-16T02:58:04.544Z,3.67
2023-02-16T03:00:47.447Z,3.50
2023-02-16T03:03:34.146Z,3.43
2023-02-16T03:06:03.717Z,4.07
2023-02-16T03:08:32.139Z,3.60
2023-02-16T03:11:30.876Z,4.00
2023-02-16T03:14:17.644Z,3.90
2023-02-16T03:17:21.285Z,3.50
2023-02-16T03:20:06.946Z,3.90
2023-02-16T03:22:52.161Z,3.60
2023-02-16T03:25:48.468Z,3.50
2023-02-16T03:28:33.642Z,3.43
2023-02-16T03:31:04.614Z,3.60
2023-02-16T03:33:31.459Z,3.50
2023-02-16T03:35:58.167Z,4.10
2023-02-16T03:38:33.596Z,5.30
2023-02-16T03:41:00.266Z,3.70
2023-02-16T03:43:31.739Z,3.50
2023-02-16T03:45:58.396Z,3.37
2023-02-16T03:48:27.531Z,3.50
2023-02-16T03:50:54.320Z,3.43
2023-02-16T03:53:20.995Z,3.50
2023-02-16T03:55:50.253Z,3.33
2023-02-16T03:58:20.399Z,3.70
2023-02-16T04:00:47.023Z,3.80
2023-02-16T04:03:13.992Z,3.70
2023-02-16T04:05:40.654Z,3.60
2023-02-16T04:08:11.228Z,3.53
2023-02-16T04:10:42.974Z,3.30
2023-02-16T04:13:12.699Z,3.37
2023-02-16T04:15:39.485Z,3.30
2023-02-16T04:18:06.262Z,3.50
2023-02-16T04:20:33.631Z,3.43
2023-02-16T04:23:02.294Z,3.40
2023-02-16T04:25:29.076Z,3.20
2023-02-16T04:27:55.745Z,3.40
2023-02-16T04:30:28.259Z,3.40
2023-02-16T04:32:55.132Z,3.30
2023-02-16T04:35:21.922Z,3.50
2023-02-16T04:37:48.616Z,3.80
2023-02-16T04:40:19.413Z,3.20
2023-02-16T04:42:46.060Z,3.47
2023-02-16T04:45:12.798Z,3.37
2023-02-16T04:47:39.289Z,3.37
2023-02-16T04:50:06.596Z,3.30
2023-02-16T04:52:34.284Z,3.07
2023-02-16T04:55:00.894Z,3.00
2023-02-16T04:57:27.523Z,3.20
2023-02-16T04:59:53.998Z,3.17
2023-02-16T05:02:20.570Z,3.60
2023-02-16T05:04:47.147Z,3.40
2023-02-16T05:07:13.667Z,3.73
2023-02-16T05:09:40.213Z,3.60
2023-02-16T05:12:25.101Z,3.87
2023-02-16T05:14:51.749Z,3.50
2023-02-16T05:17:22.364Z,3.20
2023-02-16T05:19:50.585Z,3.37
2023-02-16T05:22:17.258Z,3.80
2023-02-16T05:24:43.891Z,3.97
2023-02-16T05:27:17.770Z,3.70
2023-02-16T05:29:44.250Z,3.53
2023-02-16T05:32:10.784Z,3.50
2023-02-16T05:34:37.434Z,3.27
2023-02-16T05:37:03.974Z,5.57
2023-02-16T05:39:30.617Z,6.80
2023-02-16T05:41:57.139Z,8.43
2023-02-16T05:44:23.620Z,8.50
2023-02-16T05:46:50.188Z,9.20
2023-02-16T05:49:17.194Z,10.07
2023-02-16T05:51:43.932Z,10.37
2023-02-16T05:54:17.513Z,10.80
2023-02-16T05:56:48.609Z,10.73
2023-02-16T05:59:15.939Z,11.03
2023-02-16T06:01:42.796Z,10.53
2023-02-16T06:04:10.198Z,10.13
2023-02-16T06:06:37.666Z,9.50
2023-02-16T06:09:05.650Z,9.90
2023-02-16T06:11:38.138Z,10.03
2023-02-16T06:14:10.087Z,8.43
2023-02-16T06:16:37.692Z,8.87
2023-02-16T06:19:04.380Z,9.03
2023-02-16T06:21:30.899Z,8.47
2023-02-16T06:23:57.403Z,8.10
2023-02-16T06:26:24.200Z,8.70
2023-02-16T06:28:50.767Z,7.47
2023-02-16T06:31:17.435Z,8.07
2023-02-16T06:33:44.122Z,8.00
2023-02-16T06:36:10.777Z,8.50
2023-02-16T06:38:37.287Z,8.23
2023-02-16T06:41:04.256Z,7.47
2023-02-16T06:43:31.017Z,7.20
2023-02-16T06:45:57.572Z,7.43
2023-02-16T06:48:24.094Z,7.13
2023-02-16T06:50:50.913Z,7.07
2023-02-16T06:53:17.488Z,6.90
2023-02-16T06:55:44.035Z,6.63
2023-02-16T06:58:10.642Z,7.37
2023-02-16T07:00:37.247Z,7.73
2023-02-16T07:03:03.902Z,11.03
2023-02-16T07:05:30.620Z,9.40
2023-02-16T07:07:57.317Z,8.73
2023-02-16T07:10:23.807Z,8.90
2023-02-16T07:12:50.371Z,9.27
2023-02-16T07:15:16.885Z,8.80
2023-02-16T07:17:43.353Z,8.33
2023-02-16T07:20:12.594Z,8.50
2023-02-16T07:22:39.126Z,8.60
2023-02-16T07:25:06.021Z,8.10
2023-02-16T07:27:32.525Z,8.33
2023-02-16T07:29:59.117Z,7.90
2023-02-16T07:32:25.776Z,7.73
2023-02-16T07:34:52.351Z,8.50
2023-02-16T07:37:19.583Z,7.87
2023-02-16T07:39:46.056Z,7.53
2023-02-16T07:42:12.635Z,7.60
2023-02-16T07:44:39.171Z,7.90
2023-02-16T07:47:05.696Z,8.10
2023-02-16T07:49:32.366Z,7.10
2023-02-16T07:51:58.948Z,7.70
2023-02-16T07:54:25.537Z,7.40
2023-02-16T07:56:52.049Z,7.27
2023-02-16T07:59:18.643Z,6.73
2023-02-16T08:01:45.197Z,6.70
2023-02-16T08:04:11.871Z,6.90
2023-02-16T08:06:38.442Z,6.37
2023-02-16T08:09:04.988Z,6.60
2023-02-16T08:11:31.733Z,6.27
2023-02-16T08:14:01.753Z,6.63
2023-02-16T08:16:28.735Z,7.30
2023-02-16T08:18:56.305Z,6.73
2023-02-16T08:21:24.063Z,6.87
2023-02-16T08:24:01.605Z,6.23
2023-02-16T08:26:30.022Z,6.67
2023-02-16T08:28:57.099Z,6.47
2023-02-16T08:31:25.442Z,6.43
2023-02-16T08:33:52.974Z,8.30
2023-02-16T08:36:23.619Z,11.37
2023-02-16T08:38:50.951Z,10.73
2023-02-16T08:41:18.792Z,10.13
2023-02-16T08:43:45.856Z,9.23
2023-02-16T08:46:18.601Z,8.90
2023-02-16T08:48:45.480Z,9.10
2023-02-16T08:51:19.389Z,8.97
2023-02-16T08:53:46.637Z,8.50
2023-02-16T08:56:14.238Z,8.77
2023-02-16T08:58:40.975Z,8.03
2023-02-16T09:01:08.263Z,9.30
2023-02-16T09:03:38.503Z,8.13
2023-02-16T09:06:05.903Z,8.63
2023-02-16T09:08:37.501Z,8.47
2023-02-16T09:11:08.950Z,7.77
2023-02-16T09:13:36.135Z,7.97
2023-02-16T09:16:04.624Z,8.23
2023-02-16T09:18:33.098Z,7.73
2023-02-16T09:21:04.510Z,7.90
2023-02-16T09:23:31.210Z,7.87
2023-02-16T09:25:59.107Z,8.57
2023-02-16T09:28:25.627Z,8.00
2023-02-16T09:30:54.383Z,7.67
2023-02-16T09:33:21.770Z,7.67
2023-02-16T09:35:48.426Z,7.73
2023-02-16T09:38:16.811Z,7.30
2023-02-16T09:40:44.090Z,7.47
2023-02-16T09:43:33.208Z,7.47
2023-02-16T09:45:59.845Z,7.20
2023-02-16T09:48:37.708Z,7.50
2023-02-16T09:51:05.420Z,7.90
2023-02-16T09:53:39.976Z,7.80
2023-02-16T09:56:29.312Z,7.30
2023-02-16T09:59:16.959Z,7.23
2023-02-16T10:02:20.482Z,7.80
2023-02-16T10:04:58.755Z,7.57
2023-02-16T10:07:46.811Z,7.27
2023-02-16T10:10:15.472Z,6.93
2023-02-16T10:12:46.146Z,6.67
2023-02-16T10:15:22.319Z,6.90
2023-02-16T10:17:56.005Z,7.30
2023-02-16T10:45:53.278Z,6.40
2023-02-16T10:48:23.847Z,6.50
2023-02-16T10:51:03.867Z,6.43
2023-02-16T10:53:43.890Z,7.00
2023-02-16T10:56:31.655Z,6.97
2023-02-16T10:58:58.208Z,5.70
2023-02-16T11:01:34.643Z,6.57
2023-02-16T11:04:01.352Z,6.33
2023-02-16T11:06:29.079Z,6.60
2023-02-16T11:08:58.054Z,6.37
2023-02-16T11:11:28.639Z,6.00
2023-02-16T11:14:00.374Z,6.73
2023-02-16T11:16:26.918Z,6.30
2023-02-16T11:18:57.342Z,6.20
2023-02-16T11:21:58.629Z,6.57
2023-02-16T11:24:29.344Z,6.33
2023-02-16T11:27:06.825Z,6.17
2023-02-16T11:29:33.640Z,6.60
2023-02-16T11:32:01.919Z,6.67
2023-02-16T11:34:33.655Z,6.03
2023-02-16T11:37:06.074Z,5.67
2023-02-16T11:55:43.248Z,6.73
2023-02-16T11:58:25.343Z,7.37
2023-02-16T12:01:47.192Z,6.87
2023-02-16T12:04:42.176Z,6.63
2023-02-16T12:07:30.603Z,6.93
2023-02-16T12:10:00.331Z,6.60
2023-02-16T12:12:42.502Z,6.90
2023-02-16T12:15:25.810Z,7.60
2023-02-16T12:18:05.233Z,6.73
2023-02-16T12:20:50.535Z,6.80
2023-02-16T12:23:19.342Z,6.57
2023-02-16T12:26:33.140Z,6.77
2023-02-16T12:29:24.136Z,6.10
2023-02-16T12:32:12.604Z,6.63
2023-02-16T12:35:01.619Z,6.07
2023-02-16T12:37:39.815Z,6.47
2023-02-16T12:48:31.561Z,5.53
2023-02-16T12:51:52.249Z,5.80
2023-02-16T13:00:59.775Z,4.90
2023-02-16T13:04:03.796Z,5.20
2023-02-16T13:06:53.199Z,5.47
2023-02-16T13:09:55.144Z,4.83
2023-02-16T13:12:40.818Z,5.50
2023-02-16T13:15:22.935Z,5.13
2023-02-16T13:17:57.115Z,5.27
2023-02-16T13:20:26.364Z,5.17
2023-02-16T13:23:21.042Z,4.53
2023-02-16T13:26:18.196Z,4.60
2023-02-16T13:29:15.517Z,5.07
2023-02-16T13:31:45.253Z,5.00
2023-02-16T13:34:46.628Z,5.13
2023-02-16T13:37:38.368Z,4.87
2023-02-16T13:40:10.826Z,4.60
2023-02-16T13:42:59.576Z,4.60
2023-02-16T13:45:28.360Z,4.53
2023-02-16T13:47:55.008Z,5.00
2023-02-16T13:50:22.240Z,5.10
2023-02-16T13:52:48.964Z,4.27
2023-02-16T13:55:22.875Z,4.20
2023-02-16T13:57:50.725Z,4.20
2023-02-16T14:00:35.552Z,4.10
2023-02-16T14:03:03.407Z,4.53
2023-02-16T14:05:35.179Z,4.10
2023-02-16T14:08:21.761Z,4.30
2023-02-16T14:10:54.321Z,4.03
2023-02-16T14:13:26.081Z,4.20
2023-02-16T14:15:53.298Z,4.10
2023-02-16T14:18:41.196Z,4.10
2023-02-16T14:21:18.697Z,4.33
2023-02-16T14:23:46.279Z,4.07
2023-02-16T14:26:14.926Z,3.83
2023-02-16T14:29:03.028Z,4.07
2023-02-16T14:31:29.673Z,4.63
2023-02-16T14:34:18.493Z,3.90
2023-02-16T14:37:16.437Z,3.93
2023-02-16T14:40:04.117Z,6.60
2023-02-16T14:42:34.133Z,7.20
2023-02-16T14:45:09.797Z,6.17
2023-02-16T14:47:42.452Z,5.87
2023-02-16T14:50:24.312Z,6.27
2023-02-16T14:53:28.416Z,5.40
2023-02-16T14:56:14.553Z,5.50
2023-02-16T14:59:02.136Z,4.90
2023-02-16T15:01:28.906Z,5.70
2023-02-16T15:03:56.328Z,5.50
2023-02-16T15:06:25.737Z,5.47
2023-02-16T15:08:58.329Z,5.23
2023-02-16T15:11:35.914Z,5.53
2023-02-16T15:14:09.648Z,4.70
2023-02-16T15:16:38.697Z,4.93
2023-02-16T15:19:09.513Z,5.10
2023-02-16T15:21:36.122Z,4.93
2023-02-16T15:42:56.859Z,4.47
2023-02-16T15:45:34.198Z,4.43
2023-02-16T15:48:15.340Z,4.07
2023-02-16T15:50:42.910Z,4.47
2023-02-16T15:53:13.780Z,4.23
2023-02-16T15:55:45.033Z,4.33
2023-02-16T15:58:12.512Z,4.03
2023-02-16T16:00:40.473Z,4.17
2023-02-16T16:03:11.802Z,4.80
2023-02-16T16:05:42.021Z,4.53
2023-02-16T16:08:12.752Z,4.07
2023-02-16T16:10:42.027Z,4.00
2023-02-16T16:13:17.347Z,4.30
2023-02-16T16:15:45.318Z,4.17
2023-02-16T16:18:39.147Z,4.60
2023-02-16T16:21:13.525Z,4.70
2023-02-16T16:23:40.142Z,3.77
2023-02-16T16:26:17.552Z,4.37
2023-02-16T16:28:44.098Z,4.40
2023-02-16T16:31:23.485Z,4.67
2023-02-16T16:34:07.480Z,4.50
2023-02-16T16:36:54.741Z,3.93
2023-02-16T16:39:42.864Z,4.17
2023-02-16T16:42:18.158Z,4.40
2023-02-16T16:45:01.912Z,4.70
2023-02-16T16:47:39.781Z,4.57
2023-02-16T16:50:15.254Z,4.10
2023-02-16T16:52:43.658Z,4.20
2023-02-16T16:55:19.285Z,4.20
2023-02-16T16:57:46.515Z,4.67
2023-02-16T17:00:13.718Z,4.40
2023-02-16T17:02:40.466Z,4.20
2023-02-16T17:05:07.582Z,4.17
2023-02-16T17:07:34.136Z,3.70
2023-02-16T17:10:00.897Z,4.10
2023-02-16T17:12:31.149Z,4.20
2023-02-16T17:14:57.699Z,3.83
2023-02-16T17:17:24.219Z,4.10
2023-02-16T17:19:50.803Z,4.27
2023-02-16T17:22:20.519Z,4.13
2023-02-16T17:24:47.167Z,4.30
2023-02-16T17:27:13.771Z,4.27
2023-02-16T17:29:42.787Z,3.97
2023-02-16T17:32:09.414Z,4.40
2023-02-16T17:34:36.060Z,4.10
2023-02-16T17:37:03.968Z,3.93
2023-02-16T17:39:30.819Z,4.50
2023-02-16T17:41:57.824Z,3.93
2023-02-16T17:44:24.375Z,4.00
2023-02-16T17:46:50.925Z,4.97
2023-02-16T17:49:17.448Z,4.30
2023-02-16T17:51:43.990Z,4.60
2023-02-16T17:54:10.473Z,4.60
2023-02-16T17:56:39.533Z,4.70
2023-02-16T17:59:06.323Z,4.43
2023-02-16T18:01:35.848Z,4.37
2023-02-16T18:04:04.103Z,4.50
2023-02-16T18:06:30.641Z,4.33
2023-02-16T18:08:57.165Z,5.03
2023-02-16T18:11:23.734Z,4.57
2023-02-16T18:13:50.512Z,4.67
2023-02-16T18:16:19.018Z,4.77
2023-02-16T18:18:45.612Z,4.50
2023-02-16T18:21:12.168Z,4.50
2023-02-16T18:23:38.821Z,4.43
2023-02-16T18:26:05.698Z,4.33
2023-02-16T18:28:33.269Z,4.77
2023-02-16T18:31:00.159Z,4.90
2023-02-16T18:33:26.805Z,5.37
2023-02-16T18:35:55.530Z,5.03
2023-02-16T18:38:22.364Z,5.20
2023-02-16T18:40:50.945Z,5.43
2023-02-16T18:43:17.818Z,5.37
2023-02-16T18:45:44.485Z,4.97
2023-02-16T18:48:11.366Z,4.60
2023-02-16T18:50:37.916Z,5.33
2023-02-16T18:53:04.568Z,4.93
2023-02-16T18:55:33.911Z,4.87
2023-02-16T18:58:03.216Z,5.57
2023-02-16T19:00:29.874Z,4.87
2023-02-16T19:02:57.051Z,5.30
2023-02-16T19:05:23.829Z,5.50
2023-02-16T19:07:50.592Z,5.60
2023-02-16T19:10:17.290Z,5.80
2023-02-16T19:12:43.986Z,5.50
2023-02-16T19:15:11.046Z,5.53
2023-02-16T19:17:38.736Z,4.93
2023-02-16T19:20:09.974Z,5.33
2023-02-16T19:22:40.144Z,5.10
2023-02-16T19:25:09.847Z,5.43
2023-02-16T19:27:42.352Z,5.43
2023-02-16T19:30:09.359Z,5.43
2023-02-16T19:32:36.725Z,5.53
2023-02-16T19:35:03.798Z,5.47
2023-02-16T19:37:30.666Z,5.50
2023-02-16T19:39:57.276Z,5.77
2023-02-16T19:42:25.432Z,5.87
2023-02-16T19:44:52.135Z,6.10
2023-02-16T19:47:21.199Z,5.87
2023-02-16T19:49:47.864Z,6.20
2023-02-16T19:52:14.546Z,5.73
2023-02-16T19:54:41.483Z,5.10
2023-02-16T19:57:10.055Z,5.73
2023-02-16T19:59:36.756Z,5.83
2023-02-16T20:02:03.683Z,5.93
2023-02-16T20:04:33.290Z,5.50
2023-02-16T20:06:59.869Z,5.33
2023-02-16T20:09:26.632Z,5.73
2023-02-16T20:11:53.382Z,5.00
2023-02-16T20:14:20.084Z,5.23
2023-02-16T20:16:48.656Z,5.30
2023-02-16T20:19:15.359Z,5.40
2023-02-16T20:21:44.197Z,5.50
2023-02-16T20:24:10.944Z,5.63
2023-02-16T20:26:43.001Z,5.60
2023-02-16T20:29:10.954Z,5.53
2023-02-16T20:31:44.748Z,5.50
2023-02-16T20:34:11.523Z,5.90
2023-02-16T20:36:40.213Z,5.57
2023-02-16T20:39:09.851Z,5.70
2023-02-16T20:41:36.638Z,4.87
2023-02-16T20:44:03.976Z,5.00
2023-02-16T20:46:30.751Z,4.90
2023-02-16T20:49:00.286Z,5.30
2023-02-16T20:51:32.867Z,5.60
2023-02-16T20:54:02.955Z,5.67
2023-02-16T20:56:29.877Z,6.33
2023-02-16T20:58:56.903Z,5.50
2023-02-16T21:01:37.199Z,5.50
2023-02-16T21:04:05.510Z,5.13
2023-02-16T21:06:32.235Z,5.40
2023-02-16T21:08:58.904Z,5.33
2023-02-16T21:11:25.683Z,5.43
2023-02-16T21:13:52.409Z,5.33
2023-02-16T21:16:24.850Z,5.20
2023-02-16T21:18:51.489Z,4.73
2023-02-16T21:21:18.054Z,5.23
2023-02-16T21:23:50.013Z,4.80
2023-02-16T21:26:16.968Z,5.43
2023-02-16T21:28:43.660Z,5.60
2023-02-16T21:31:13.017Z,5.23
2023-02-16T21:33:39.703Z,5.27
2023-02-16T21:36:13.950Z,4.93
2023-02-16T21:38:42.131Z,5.40
2023-02-16T21:41:29.252Z,5.00
2023-02-16T21:44:00.727Z,5.27
2023-02-16T21:46:32.421Z,4.90
2023-02-16T21:49:01.184Z,4.87
2023-02-16T21:51:32.753Z,5.40
2023-02-16T21:53:59.438Z,5.63
2023-02-16T21:56:33.713Z,4.57
2023-02-16T21:59:00.375Z,4.77
2023-02-16T22:01:30.042Z,5.13
2023-02-16T22:03:59.343Z,4.97
2023-02-16T22:06:37.710Z,4.97
2023-02-16T22:09:06.276Z,4.53
2023-02-16T22:11:32.901Z,5.03
2023-02-16T22:14:00.141Z,4.80
2023-02-16T22:16:27.495Z,5.00
2023-02-16T22:19:01.411Z,4.60
2023-02-16T22:21:28.478Z,5.37
2023-02-16T22:23:55.373Z,5.00
2023-02-16T22:26:26.502Z,5.20
2023-02-16T22:28:53.287Z,4.87
2023-02-16T22:31:20.662Z,4.30
2023-02-16T22:33:47.403Z,5.27
2023-02-16T22:36:15.003Z,4.70
2023-02-16T22:38:49.916Z,5.37
2023-02-16T22:41:16.623Z,4.97
2023-02-16T22:43:43.537Z,5.30
2023-02-16T22:46:14.370Z,5.03
2023-02-16T22:48:41.143Z,5.23
2023-02-16T22:51:11.484Z,5.23
2023-02-16T22:53:40.394Z,5.17
2023-02-16T22:56:08.316Z,4.30
2023-02-16T22:58:35.224Z,4.70
2023-02-16T23:01:01.950Z,4.97
2023-02-16T23:03:28.664Z,5.00
2023-02-16T23:05:57.577Z,4.80
2023-02-16T23:08:24.335Z,5.00
2023-02-16T23:11:00.031Z,5.07
2023-02-16T23:13:31.431Z,4.93
2023-02-16T23:16:02.532Z,4.40
2023-02-16T23:18:32.332Z,4.63
2023-02-16T23:21:09.127Z,4.03
2023-02-16T23:23:36.441Z,4.77
2023-02-16T23:26:05.018Z,4.20
2023-02-16T23:28:31.762Z,4.87
2023-02-16T23:30:58.619Z,4.70
2023-02-16T23:33:25.318Z,4.70
2023-02-16T23:35:57.527Z,4.80
2023-02-16T23:38:24.236Z,4.80
2023-02-16T23:41:04.291Z,5.00
2023-02-16T23:43:31.059Z,5.20
2023-02-16T23:45:57.894Z,4.80
2023-02-16T23:48:24.577Z,4.97
2023-02-16T23:50:51.350Z,4.97
2023-02-16T23:53:21.404Z,4.60
2023-02-16T23:56:00.622Z,5.13
2023-02-16T23:58:29.041Z,4.90
